Ipojuca, Brazil
Current Conditions -  °F | °C
As of 12:00 PM on Thursday 30 Oct 2014 (Local Time) from SBRF Reporting Station
Scattered Clouds Scattered Clouds  
Wind Chill: 84°   Ceiling: Unl
Heat Index: 90°   Visibility: 6mi
Dew Point: 72°   Wind: 13mph
Humidity: 66%   Direction: 100°E
Pressure: 29.94"   Gusts: NA
Location:  8.4°S, 35.06°W
Report Text: SBRF 301500Z 10011KT 9999 FEW023 SCT060 29/22 Q1014
Loading
Personal Weather Stations






























Interactive Weather Map
Tropical Storm Tracking
New forecast layout! Learn more

10-Day Weather Forecast

Advertisements
Track Severe Weather on mobile